createdAt,value
2022-11-23T00:01:23.556Z,5.90
2022-11-23T00:03:53.173Z,6.00
2022-11-23T00:06:21.715Z,6.00
2022-11-23T00:08:49.966Z,5.90
2022-11-23T00:11:19.494Z,5.80
2022-11-23T00:13:47.341Z,5.80
2022-11-23T00:16:20.401Z,5.80
2022-11-23T00:18:47.848Z,5.80
2022-11-23T00:21:17.615Z,5.80
2022-11-23T00:23:46.204Z,5.80
2022-11-23T00:26:14.380Z,5.70
2022-11-23T00:28:42.314Z,5.70
2022-11-23T00:31:27.793Z,5.70
2022-11-23T00:33:56.473Z,5.60
2022-11-23T00:36:26.082Z,5.50
2022-11-23T00:38:58.083Z,5.50
2022-11-23T00:41:26.436Z,5.50
2022-11-23T00:43:53.762Z,5.40
2022-11-23T00:46:27.295Z,5.40
2022-11-23T00:48:56.775Z,5.30
2022-11-23T00:51:34.978Z,5.30
2022-11-23T00:54:04.011Z,5.20
2022-11-23T00:56:32.778Z,5.20
2022-11-23T00:59:01.892Z,5.20
2022-11-23T01:01:34.092Z,5.10
2022-11-23T01:04:04.518Z,5.10
2022-11-23T01:06:37.306Z,5.10
2022-11-23T01:09:12.140Z,5.10
2022-11-23T01:11:39.760Z,5.10
2022-11-23T01:14:07.493Z,5.00
2022-11-23T01:16:37.481Z,5.00
2022-11-23T01:19:08.793Z,4.90
2022-11-23T01:21:36.769Z,4.90
2022-11-23T01:24:14.974Z,4.90
2022-11-23T01:26:42.743Z,4.80
2022-11-23T01:29:10.408Z,4.80
2022-11-23T01:31:46.196Z,4.80
2022-11-23T01:34:15.570Z,4.70
2022-11-23T01:36:43.744Z,4.70
2022-11-23T01:39:12.169Z,4.70
2022-11-23T01:41:42.308Z,4.70
2022-11-23T01:44:30.829Z,4.60
2022-11-23T01:47:06.919Z,4.70
2022-11-23T01:49:39.880Z,4.60
2022-11-23T01:52:15.853Z,4.60
2022-11-23T01:54:55.014Z,4.50
2022-11-23T01:57:32.370Z,4.60
2022-11-23T02:00:01.455Z,4.60
2022-11-23T02:02:50.503Z,4.50
2022-11-23T02:05:19.787Z,4.50
2022-11-23T02:07:49.654Z,4.60
2022-11-23T02:10:17.538Z,4.50
2022-11-23T02:12:44.905Z,4.50
2022-11-23T02:15:12.899Z,4.50
2022-11-23T02:17:43.214Z,4.50
2022-11-23T02:20:14.028Z,4.60
2022-11-23T02:22:50.791Z,4.60
2022-11-23T02:25:45.971Z,4.50
2022-11-23T02:28:25.282Z,4.50
2022-11-23T02:30:55.238Z,4.60
2022-11-23T02:33:25.506Z,4.50
2022-11-23T02:35:58.889Z,4.60
2022-11-23T02:38:30.414Z,4.60
2022-11-23T02:40:57.902Z,4.60
2022-11-23T02:43:25.830Z,4.70
2022-11-23T02:46:01.848Z,4.70
2022-11-23T02:48:29.273Z,4.70
2022-11-23T02:50:56.545Z,4.70
2022-11-23T02:53:24.626Z,4.70
2022-11-23T02:55:54.142Z,4.60
2022-11-23T02:58:21.588Z,4.60
2022-11-23T03:00:48.921Z,4.70
2022-11-23T03:03:20.188Z,4.60
2022-11-23T03:05:47.491Z,4.70
2022-11-23T03:08:14.959Z,4.70
2022-11-23T03:10:42.951Z,4.70
2022-11-23T03:13:11.328Z,4.70
2022-11-23T03:15:40.365Z,4.70
2022-11-23T03:18:07.855Z,4.70
2022-11-23T03:20:35.673Z,4.70
2022-11-23T03:23:03.126Z,4.70
2022-11-23T03:25:30.474Z,4.70
2022-11-23T03:27:59.146Z,4.70
2022-11-23T03:30:27.497Z,4.60
2022-11-23T03:32:54.908Z,4.60
2022-11-23T03:35:23.919Z,4.50
2022-11-23T03:38:23.806Z,4.50
2022-11-23T03:40:52.688Z,4.40
2022-11-23T03:43:25.808Z,4.40
2022-11-23T03:45:53.212Z,4.30
2022-11-23T03:48:20.589Z,4.20
2022-11-23T03:50:48.812Z,4.20
2022-11-23T03:53:16.190Z,4.20
2022-11-23T03:55:46.949Z,4.10
2022-11-23T03:58:15.170Z,4.10
2022-11-23T04:00:43.426Z,4.10
2022-11-23T04:03:13.688Z,4.10
2022-11-23T04:05:59.512Z,4.10
2022-11-23T04:08:55.222Z,4.00
2022-11-23T04:11:55.450Z,4.00
2022-11-23T04:14:22.748Z,4.00
2022-11-23T04:16:50.173Z,4.00
2022-11-23T04:19:17.657Z,3.90
2022-11-23T04:21:45.149Z,4.00
2022-11-23T04:24:13.937Z,4.00
2022-11-23T04:26:43.015Z,4.00
2022-11-23T04:29:11.658Z,4.10
2022-11-23T04:31:43.077Z,4.10
2022-11-23T04:34:17.083Z,4.10
2022-11-23T04:36:44.983Z,4.20
2022-11-23T04:39:13.793Z,4.20
2022-11-23T04:42:01.415Z,4.30
2022-11-23T04:44:30.714Z,4.40
2022-11-23T04:47:02.759Z,4.40
2022-11-23T04:49:30.510Z,4.40
2022-11-23T04:51:58.224Z,4.50
2022-11-23T04:54:32.237Z,4.60
2022-11-23T04:57:02.304Z,4.60
2022-11-23T04:59:30.007Z,4.70
2022-11-23T05:01:58.836Z,4.70
2022-11-23T05:04:44.679Z,4.70
2022-11-23T05:07:13.611Z,4.70
2022-11-23T05:09:44.533Z,4.80
2022-11-23T05:12:18.146Z,4.80
2022-11-23T05:14:45.518Z,4.70
2022-11-23T05:17:16.981Z,4.70
2022-11-23T05:19:46.137Z,4.70
2022-11-23T05:22:14.136Z,4.70
2022-11-23T05:24:42.895Z,4.70
2022-11-23T05:27:15.543Z,4.70
2022-11-23T05:29:43.418Z,4.80
2022-11-23T05:32:11.618Z,4.70
2022-11-23T05:34:39.374Z,4.70
2022-11-23T05:37:09.184Z,4.80
2022-11-23T05:39:45.651Z,4.80
2022-11-23T05:42:14.102Z,4.80
2022-11-23T05:44:43.046Z,4.80
2022-11-23T05:47:18.511Z,4.80
2022-11-23T05:49:45.894Z,4.80
2022-11-23T05:52:14.547Z,4.80
2022-11-23T05:54:41.910Z,4.80
2022-11-23T05:57:12.751Z,4.90
2022-11-23T05:59:41.696Z,4.80
2022-11-23T06:02:12.938Z,4.90
2022-11-23T06:04:40.229Z,4.90
2022-11-23T06:07:11.921Z,4.90
2022-11-23T06:09:56.090Z,4.90
2022-11-23T06:12:23.505Z,4.90
2022-11-23T06:14:50.885Z,4.90
2022-11-23T06:17:22.030Z,4.90
2022-11-23T06:19:50.798Z,5.00
2022-11-23T06:22:18.180Z,5.00
2022-11-23T06:24:54.878Z,4.90
2022-11-23T06:27:35.210Z,5.00
2022-11-23T06:30:07.020Z,5.00
2022-11-23T06:32:34.333Z,4.90
2022-11-23T06:35:01.817Z,4.90
2022-11-23T06:37:32.830Z,4.90
2022-11-23T06:40:01.297Z,4.90
2022-11-23T06:42:38.820Z,5.00
2022-11-23T06:45:09.949Z,5.00
2022-11-23T06:47:37.973Z,5.00
2022-11-23T06:50:06.121Z,5.10
2022-11-23T06:52:33.542Z,5.10
2022-11-23T06:55:00.914Z,5.10
2022-11-23T06:57:28.322Z,5.10
2022-11-23T06:59:56.457Z,5.00
2022-11-23T07:02:32.279Z,5.10
2022-11-23T07:04:59.908Z,5.10
2022-11-23T07:07:29.251Z,5.20
2022-11-23T07:10:07.474Z,5.10
2022-11-23T07:13:04.160Z,5.20
2022-11-23T07:15:31.777Z,5.20
2022-11-23T07:18:00.565Z,5.20
2022-11-23T07:20:28.297Z,5.30
2022-11-23T07:23:07.981Z,5.30
2022-11-23T07:25:36.957Z,5.40
2022-11-23T07:28:06.791Z,5.40
2022-11-23T07:30:35.854Z,5.40
2022-11-23T07:33:09.321Z,5.40
2022-11-23T07:35:39.474Z,5.40
2022-11-23T07:38:10.687Z,5.40
2022-11-23T07:40:39.178Z,5.50
2022-11-23T07:43:12.922Z,5.50
2022-11-23T07:45:40.210Z,5.60
2022-11-23T07:48:10.246Z,5.70
2022-11-23T07:50:38.765Z,5.70
2022-11-23T07:53:07.187Z,5.70
2022-11-23T07:55:34.851Z,5.80
2022-11-23T07:58:02.880Z,5.80
2022-11-23T08:00:30.483Z,5.80
2022-11-23T08:03:26.147Z,5.80
2022-11-23T08:05:46.461Z,5.90
2022-11-23T08:08:13.893Z,5.90
2022-11-23T08:10:46.117Z,5.90
2022-11-23T08:13:15.896Z,6.00
2022-11-23T08:15:43.143Z,6.00
2022-11-23T08:18:10.687Z,6.00
2022-11-23T08:20:37.949Z,6.00
2022-11-23T08:23:05.269Z,6.10
2022-11-23T08:25:32.581Z,6.10
2022-11-23T08:28:04.552Z,6.10
2022-11-23T08:30:32.566Z,6.10
2022-11-23T08:33:03.137Z,6.20
2022-11-23T08:35:30.757Z,6.20
2022-11-23T08:37:58.344Z,6.20
2022-11-23T08:40:26.085Z,6.20
2022-11-23T08:42:53.410Z,6.20
2022-11-23T08:45:21.118Z,6.20
2022-11-23T08:47:48.451Z,6.30
2022-11-23T08:50:16.615Z,6.40
2022-11-23T08:52:44.082Z,6.40
2022-11-23T08:55:11.476Z,6.40
2022-11-23T08:57:38.922Z,6.50
2022-11-23T09:00:06.937Z,6.60
2022-11-23T09:02:34.179Z,6.60
2022-11-23T09:05:01.461Z,6.70
2022-11-23T09:07:28.791Z,6.80
2022-11-23T09:09:56.013Z,6.80
2022-11-23T09:12:23.283Z,6.80
2022-11-23T09:14:50.586Z,6.90
2022-11-23T09:17:17.871Z,7.00
2022-11-23T09:19:45.214Z,7.10
2022-11-23T09:22:12.592Z,7.20
2022-11-23T09:24:40.071Z,7.30
2022-11-23T09:27:08.021Z,7.40
2022-11-23T09:29:35.313Z,7.40
2022-11-23T09:32:03.484Z,7.60
2022-11-23T09:34:30.995Z,7.70
2022-11-23T09:36:58.598Z,7.80
2022-11-23T09:39:25.866Z,7.80
2022-11-23T09:42:14.391Z,8.00
2022-11-23T09:45:06.522Z,8.10
2022-11-23T09:48:02.284Z,8.20
2022-11-23T09:50:53.986Z,8.30
2022-11-23T09:53:42.874Z,8.40
2022-11-23T09:56:27.404Z,8.50
2022-11-23T09:58:57.284Z,8.60
2022-11-23T10:01:25.516Z,8.70
2022-11-23T10:03:53.755Z,8.90
2022-11-23T10:06:22.584Z,9.10
2022-11-23T10:09:02.215Z,9.10
2022-11-23T10:12:00.281Z,9.20
2022-11-23T10:14:42.668Z,9.40
2022-11-23T10:17:22.927Z,9.60
2022-11-23T10:20:37.374Z,9.50
2022-11-23T10:23:19.624Z,9.60
2022-11-23T10:25:49.653Z,9.70
2022-11-23T10:28:20.617Z,10.00
2022-11-23T10:31:02.448Z,10.20
2022-11-23T10:33:45.503Z,10.40
2022-11-23T10:36:13.924Z,10.40
2022-11-23T10:38:42.071Z,10.70
2022-11-23T10:41:15.865Z,10.90
2022-11-23T10:43:51.668Z,11.60
2022-11-23T10:46:31.175Z,12.50
2022-11-23T10:49:16.825Z,13.30
2022-11-23T10:51:55.487Z,14.50
2022-11-23T10:54:56.052Z,14.60
2022-11-23T10:57:36.271Z,14.00
2022-11-23T11:00:13.183Z,13.60
2022-11-23T11:02:41.808Z,13.50
2022-11-23T11:05:53.434Z,13.40
2022-11-23T11:08:18.369Z,14.20
2022-11-23T11:10:50.245Z,15.20
2022-11-23T11:13:42.342Z,15.20
2022-11-23T11:16:19.055Z,14.40
2022-11-23T11:18:46.574Z,14.80
2022-11-23T11:21:21.028Z,15.00
2022-11-23T11:23:59.846Z,14.40
2022-11-23T11:26:29.039Z,13.60
2022-11-23T11:29:02.372Z,13.30
2022-11-23T11:31:35.843Z,13.50
2022-11-23T11:34:29.213Z,13.60
2022-11-23T11:37:44.440Z,13.50
2022-11-23T11:40:38.636Z,14.70
2022-11-23T11:43:07.531Z,16.10
2022-11-23T11:45:54.463Z,17.50
2022-11-23T11:48:49.506Z,18.40
2022-11-23T11:51:22.414Z,18.40
2022-11-23T11:54:18.367Z,17.60
2022-11-23T11:56:49.768Z,17.70
2022-11-23T11:59:20.518Z,18.80
2022-11-23T12:01:50.678Z,19.70
2022-11-23T12:04:21.894Z,19.50
2022-11-23T12:06:56.374Z,19.50
2022-11-23T12:09:31.238Z,19.40
2022-11-23T12:12:00.192Z,19.40
2022-11-23T12:14:27.782Z,19.30
2022-11-23T12:17:31.959Z,19.00
2022-11-23T12:19:57.123Z,17.80
2022-11-23T12:22:33.488Z,17.70
2022-11-23T12:25:36.995Z,18.10
2022-11-23T12:28:23.146Z,18.60
2022-11-23T12:31:17.814Z,19.00
2022-11-23T12:34:03.508Z,19.00
2022-11-23T12:37:02.894Z,19.80
2022-11-23T12:39:33.203Z,20.40
2022-11-23T12:42:06.437Z,20.20
2022-11-23T12:44:39.717Z,20.10
2022-11-23T12:47:22.616Z,19.80
2022-11-23T12:50:12.008Z,20.00
2022-11-23T12:53:03.526Z,20.40
2022-11-23T12:55:56.612Z,20.70
2022-11-23T12:58:29.559Z,20.90
2022-11-23T13:01:30.640Z,20.80
2022-11-23T13:04:23.279Z,20.50
2022-11-23T13:10:35.757Z,20.10
2022-11-23T13:13:15.856Z,20.90
2022-11-23T13:16:15.809Z,21.00
2022-11-23T13:19:04.246Z,21.10
2022-11-23T13:21:40.859Z,21.20
2022-11-23T13:24:28.726Z,21.50
2022-11-23T13:27:31.823Z,21.10
2022-11-23T13:30:07.628Z,20.90
2022-11-23T13:32:34.945Z,20.00
2022-11-23T13:35:02.218Z,18.80
2022-11-23T13:37:29.731Z,17.50
2022-11-23T13:40:00.387Z,16.60
2022-11-23T13:42:31.936Z,16.40
2022-11-23T13:45:21.075Z,17.80
2022-11-23T13:48:09.064Z,19.20
2022-11-23T13:50:55.385Z,20.80
2022-11-23T13:53:40.719Z,22.10
2022-11-23T13:56:30.260Z,23.10
2022-11-23T13:59:23.365Z,24.20
2022-11-23T14:02:09.574Z,24.10
2022-11-23T14:04:44.804Z,23.30
2022-11-23T14:07:47.091Z,23.00
2022-11-23T14:10:25.007Z,22.90
2022-11-23T14:13:14.617Z,23.00
2022-11-23T14:15:52.535Z,22.90
2022-11-23T14:18:59.376Z,23.10
2022-11-23T14:22:03.376Z,22.80
2022-11-23T14:25:00.942Z,22.70
2022-11-23T14:28:06.453Z,22.80
2022-11-23T14:30:51.037Z,22.50
2022-11-23T14:33:29.263Z,22.30
2022-11-23T14:36:06.406Z,22.10
2022-11-23T14:38:45.634Z,21.80
2022-11-23T14:41:32.177Z,20.90
2022-11-23T14:44:01.626Z,20.10
2022-11-23T14:46:29.050Z,19.40
2022-11-23T14:49:16.574Z,18.90
2022-11-23T14:51:45.304Z,18.10
2022-11-23T14:54:15.448Z,17.70
2022-11-23T14:56:47.542Z,16.90
2022-11-23T14:59:17.879Z,16.40
2022-11-23T15:01:58.497Z,15.70
2022-11-23T15:04:36.349Z,15.30
2022-11-23T15:07:06.630Z,14.60
2022-11-23T15:09:45.087Z,14.00
2022-11-23T15:12:26.122Z,13.30
2022-11-23T15:14:57.338Z,12.70
2022-11-23T15:17:25.067Z,12.10
2022-11-23T15:20:01.126Z,11.50
2022-11-23T15:22:31.259Z,11.00
2022-11-23T15:25:13.500Z,10.40
2022-11-23T15:27:42.103Z,9.80
2022-11-23T15:30:30.179Z,9.50
2022-11-23T15:33:00.258Z,9.10
2022-11-23T15:35:38.414Z,8.80
2022-11-23T15:38:21.991Z,8.60
2022-11-23T15:40:51.309Z,8.30
2022-11-23T15:43:20.188Z,8.10
2022-11-23T15:45:47.525Z,8.00
2022-11-23T15:48:27.955Z,7.80
2022-11-23T15:50:56.627Z,7.70
2022-11-23T15:53:47.583Z,7.50
2022-11-23T15:56:36.175Z,7.40
2022-11-23T15:59:17.005Z,7.30
2022-11-23T16:01:44.661Z,7.10
2022-11-23T16:04:36.237Z,7.10
2022-11-23T16:07:26.450Z,7.00
2022-11-23T16:10:06.091Z,6.90
2022-11-23T16:12:35.662Z,6.80
2022-11-23T16:15:46.408Z,6.70
2022-11-23T16:18:13.677Z,6.70
2022-11-23T16:21:07.645Z,6.60
2022-11-23T16:23:47.720Z,6.60
2022-11-23T16:26:16.291Z,6.50
2022-11-23T16:28:58.261Z,6.50
2022-11-23T16:31:30.025Z,6.40
2022-11-23T16:33:57.396Z,6.30
2022-11-23T16:36:27.954Z,6.30
2022-11-23T16:39:04.007Z,6.20
2022-11-23T16:41:32.985Z,6.20
2022-11-23T16:44:00.296Z,6.10
2022-11-23T16:46:27.839Z,6.00
2022-11-23T16:48:57.498Z,6.00
2022-11-23T16:51:24.890Z,5.90
2022-11-23T16:56:40.867Z,5.80
2022-11-23T16:59:18.573Z,5.70
2022-11-23T17:01:56.711Z,5.60
2022-11-23T17:04:25.744Z,5.60
2022-11-23T17:06:53.083Z,5.50
2022-11-23T17:09:21.643Z,5.50
2022-11-23T17:11:50.941Z,5.50
2022-11-23T17:14:19.814Z,5.40
2022-11-23T17:16:48.877Z,5.40
2022-11-23T17:19:18.345Z,5.40
2022-11-23T17:21:46.009Z,5.30
2022-11-23T17:24:14.148Z,5.30
2022-11-23T17:26:52.792Z,5.30
2022-11-23T17:29:21.319Z,5.20
2022-11-23T17:31:50.433Z,5.20
2022-11-23T17:34:18.162Z,5.10
2022-11-23T17:36:47.445Z,5.10
2022-11-23T17:39:21.051Z,5.10
2022-11-23T17:41:48.866Z,5.10
2022-11-23T17:44:16.900Z,5.10
2022-11-23T17:46:45.897Z,5.10
2022-11-23T17:49:16.328Z,5.00
2022-11-23T17:51:43.797Z,5.00
2022-11-23T17:54:11.164Z,4.90
2022-11-23T17:56:39.036Z,4.90
2022-11-23T17:59:09.387Z,4.90
2022-11-23T18:01:36.987Z,4.90
2022-11-23T18:04:05.082Z,4.80
2022-11-23T18:06:32.984Z,4.80
2022-11-23T18:09:00.422Z,4.80
2022-11-23T18:11:28.715Z,4.70
2022-11-23T18:13:56.130Z,4.70
2022-11-23T18:16:23.986Z,4.60
2022-11-23T18:18:51.348Z,4.60
2022-11-23T18:21:19.699Z,4.50
2022-11-23T18:23:47.291Z,4.50
2022-11-23T18:26:19.448Z,4.50
2022-11-23T18:28:47.371Z,4.50
2022-11-23T18:31:14.849Z,4.40
2022-11-23T18:33:46.922Z,4.40
2022-11-23T18:36:14.454Z,4.40
2022-11-23T18:38:44.965Z,4.30
2022-11-23T18:41:14.482Z,4.30
2022-11-23T18:43:44.829Z,4.30
2022-11-23T18:46:19.566Z,4.30
2022-11-23T18:48:51.149Z,4.30
2022-11-23T18:51:19.052Z,4.30
2022-11-23T18:53:48.123Z,4.30
2022-11-23T18:56:16.178Z,4.30
2022-11-23T18:58:45.124Z,4.30
2022-11-23T19:01:15.252Z,4.30
2022-11-23T19:03:42.862Z,4.30
2022-11-23T19:06:14.509Z,4.30
2022-11-23T19:08:47.720Z,4.20
2022-11-23T19:11:22.951Z,4.20
2022-11-23T19:13:56.097Z,4.20
2022-11-23T19:16:26.262Z,4.30
2022-11-23T19:18:55.687Z,4.30
2022-11-23T19:21:25.121Z,4.30
2022-11-23T19:23:54.762Z,4.30
2022-11-23T19:26:22.725Z,4.30
2022-11-23T19:28:51.271Z,4.30
2022-11-23T19:31:21.629Z,4.40
2022-11-23T19:33:50.365Z,4.40
2022-11-23T19:36:20.570Z,4.40
2022-11-23T19:38:48.763Z,4.40
2022-11-23T19:41:17.438Z,4.50
2022-11-23T19:43:45.744Z,4.40
2022-11-23T19:46:14.723Z,4.50
2022-11-23T19:48:42.367Z,4.50
2022-11-23T19:51:14.907Z,4.60
2022-11-23T19:53:43.524Z,4.60
2022-11-23T19:56:13.928Z,4.60
2022-11-23T19:58:42.613Z,4.70
2022-11-23T20:01:19.011Z,4.70
2022-11-23T20:03:48.630Z,4.70
2022-11-23T20:06:32.589Z,4.80
2022-11-23T20:09:02.961Z,4.80
2022-11-23T20:11:32.572Z,4.80
2022-11-23T20:14:00.392Z,4.80
2022-11-23T20:16:30.221Z,4.80
2022-11-23T20:19:00.187Z,4.90
2022-11-23T20:21:29.430Z,4.90
2022-11-23T20:24:10.843Z,4.90
2022-11-23T20:26:38.729Z,5.00
2022-11-23T20:29:07.168Z,4.90
2022-11-23T20:31:35.550Z,5.00
2022-11-23T20:34:07.370Z,5.10
2022-11-23T20:36:37.693Z,5.10
2022-11-23T20:39:07.702Z,5.10
2022-11-23T20:41:36.805Z,5.10
2022-11-23T20:44:07.084Z,5.10
2022-11-23T20:49:22.324Z,5.10
2022-11-23T20:51:49.657Z,5.10
2022-11-23T20:54:16.960Z,5.10
2022-11-23T20:56:44.384Z,5.10
2022-11-23T20:59:12.521Z,5.10
2022-11-23T21:01:42.779Z,5.10
2022-11-23T21:04:10.220Z,5.10
2022-11-23T21:06:39.927Z,5.10
2022-11-23T21:09:09.334Z,5.20
2022-11-23T21:11:55.867Z,5.20
2022-11-23T21:14:27.957Z,5.20
2022-11-23T21:16:58.739Z,5.20
2022-11-23T21:19:27.536Z,5.20
2022-11-23T21:21:55.387Z,5.20
2022-11-23T21:24:23.132Z,5.20
2022-11-23T21:26:50.706Z,5.20
2022-11-23T21:29:18.619Z,5.20
2022-11-23T21:31:47.839Z,5.30
2022-11-23T21:34:18.503Z,5.30
2022-11-23T21:36:45.821Z,5.30
2022-11-23T21:39:13.795Z,5.30
2022-11-23T21:41:41.725Z,5.30
2022-11-23T21:44:10.032Z,5.30
2022-11-23T21:46:38.919Z,5.40
2022-11-23T21:49:06.801Z,5.40
2022-11-23T21:51:35.054Z,5.40
2022-11-23T21:54:04.804Z,5.40
2022-11-23T21:56:32.473Z,5.40
2022-11-23T21:59:00.176Z,5.40
2022-11-23T22:01:33.224Z,5.50
2022-11-23T22:04:04.241Z,5.40
2022-11-23T22:06:32.100Z,5.40
2022-11-23T22:09:02.302Z,5.50
2022-11-23T22:11:32.390Z,5.50
2022-11-23T22:14:05.438Z,5.50
2022-11-23T22:16:35.331Z,5.50
2022-11-23T22:19:03.219Z,5.60
2022-11-23T22:21:34.780Z,5.60
2022-11-23T22:24:03.344Z,5.60
2022-11-23T22:26:31.292Z,5.60
2022-11-23T22:29:02.638Z,5.60
2022-11-23T22:31:33.080Z,5.50
2022-11-23T22:34:06.020Z,5.50
2022-11-23T22:36:33.417Z,5.50
2022-11-23T22:39:03.976Z,5.50
2022-11-23T22:41:38.976Z,5.50
2022-11-23T22:44:09.043Z,5.50
2022-11-23T22:46:37.053Z,5.50
2022-11-23T22:49:04.647Z,5.50
2022-11-23T22:51:32.324Z,5.50
2022-11-23T22:54:00.682Z,5.50
2022-11-23T22:56:29.732Z,5.50
2022-11-23T22:58:57.088Z,5.60
2022-11-23T23:01:27.472Z,5.50
2022-11-23T23:03:56.307Z,5.60
2022-11-23T23:06:25.924Z,5.60
2022-11-23T23:08:58.215Z,5.60
2022-11-23T23:11:27.559Z,5.60
2022-11-23T23:13:55.718Z,5.60
2022-11-23T23:16:23.712Z,5.60
2022-11-23T23:18:51.663Z,5.60
2022-11-23T23:21:20.994Z,5.70
2022-11-23T23:23:50.763Z,5.60
2022-11-23T23:26:21.554Z,5.60
2022-11-23T23:28:49.169Z,5.60
2022-11-23T23:31:17.544Z,5.60
2022-11-23T23:33:45.789Z,5.60
2022-11-23T23:36:19.845Z,5.60
2022-11-23T23:38:47.397Z,5.60
2022-11-23T23:41:15.144Z,5.60
2022-11-23T23:43:43.202Z,5.60
2022-11-23T23:46:13.796Z,5.60
2022-11-23T23:48:41.821Z,5.60
2022-11-23T23:51:10.779Z,5.50
2022-11-23T23:53:38.821Z,5.50
2022-11-23T23:56:09.234Z,5.60
2022-11-23T23:58:36.726Z,5.50
